<?xml version="1.0" encoding="UTF-8" standalone="no" ?>
<gpx xmlns="http://www.topografix.com/GPX/1/1" xmlns:xsi="http://www.w3.org/2001/XMLSchema-instance" xsi:schemaLocation="http://www.topografix.com/GPX/1/1 http://www.topografix.com/GPX/1/1/gpx.xsd" version="1.1" creator="VisuGPX - https://www.visugpx.com">
  <metadata>
    <name>3 batailles Boucle N°3</name>
  </metadata>
  <trk>
    <name><![CDATA[14115956-3 batailles Boucle N°3]]></name>
    <extensions>
      <line xmlns="http://www.topografix.com/GPX/gpx_style/0/2">
        <color>8d8600</color>
        <width>4</width>
      </line>
    </extensions>
    <trkseg>
      <trkpt lat="46.67936" lon="0.54382">
        <ele>123.8</ele>
        <time>2022-07-11T07:39:07Z</time>
      </trkpt>
      <trkpt lat="46.68158" lon="0.54542">
        <ele>123</ele>
        <time>2022-07-11T07:42:00Z</time>
      </trkpt>
      <trkpt lat="46.68327" lon="0.54617">
        <ele>125</ele>
        <time>2022-07-11T07:44:21Z</time>
      </trkpt>
      <trkpt lat="46.68453" lon="0.5461">
        <ele>120</ele>
        <time>2022-07-11T07:46:02Z</time>
      </trkpt>
      <trkpt lat="46.68647" lon="0.54678">
        <ele>106</ele>
        <time>2022-07-11T07:48:42Z</time>
      </trkpt>
      <trkpt lat="46.69003" lon="0.54481">
        <ele>66</ele>
        <time>2022-07-11T07:53:47Z</time>
      </trkpt>
      <trkpt lat="46.69057" lon="0.5449">
        <ele>64</ele>
        <time>2022-07-11T07:54:30Z</time>
      </trkpt>
      <trkpt lat="46.69059" lon="0.54375">
        <ele>65</ele>
        <time>2022-07-11T07:55:34Z</time>
      </trkpt>
      <trkpt lat="46.69084" lon="0.54238">
        <ele>79</ele>
        <time>2022-07-11T07:56:51Z</time>
      </trkpt>
      <trkpt lat="46.69188" lon="0.54114">
        <ele>98</ele>
        <time>2022-07-11T07:58:39Z</time>
      </trkpt>
      <trkpt lat="46.69249" lon="0.53956">
        <ele>107</ele>
        <time>2022-07-11T08:00:19Z</time>
      </trkpt>
      <trkpt lat="46.69295" lon="0.54117">
        <ele>108</ele>
        <time>2022-07-11T08:01:54Z</time>
      </trkpt>
      <trkpt lat="46.69338" lon="0.54211">
        <ele>108</ele>
        <time>2022-07-11T08:02:56Z</time>
      </trkpt>
      <trkpt lat="46.69563" lon="0.54059">
        <ele>121</ele>
        <time>2022-07-11T08:06:15Z</time>
      </trkpt>
      <trkpt lat="46.69526" lon="0.5381">
        <ele>127</ele>
        <time>2022-07-11T08:08:35Z</time>
      </trkpt>
      <trkpt lat="46.69561" lon="0.53783">
        <ele>128</ele>
        <time>2022-07-11T08:09:07Z</time>
      </trkpt>
      <trkpt lat="46.6968" lon="0.53801">
        <ele>127</ele>
        <time>2022-07-11T08:10:42Z</time>
      </trkpt>
      <trkpt lat="46.69719" lon="0.53886">
        <ele>125</ele>
        <time>2022-07-11T08:11:39Z</time>
      </trkpt>
      <trkpt lat="46.69792" lon="0.53892">
        <ele>121</ele>
        <time>2022-07-11T08:12:37Z</time>
      </trkpt>
      <trkpt lat="46.70123" lon="0.53671">
        <ele>115</ele>
        <time>2022-07-11T08:17:29Z</time>
      </trkpt>
      <trkpt lat="46.70445" lon="0.53331">
        <ele>120</ele>
        <time>2022-07-11T08:22:47Z</time>
      </trkpt>
      <trkpt lat="46.70514" lon="0.53115">
        <ele>125</ele>
        <time>2022-07-11T08:24:58Z</time>
      </trkpt>
      <trkpt lat="46.70633" lon="0.53043">
        <ele>123</ele>
        <time>2022-07-11T08:26:41Z</time>
      </trkpt>
      <trkpt lat="46.70758" lon="0.53088">
        <ele>121</ele>
        <time>2022-07-11T08:28:24Z</time>
      </trkpt>
      <trkpt lat="46.70835" lon="0.53091">
        <ele>121</ele>
        <time>2022-07-11T08:29:26Z</time>
      </trkpt>
      <trkpt lat="46.70882" lon="0.52645">
        <ele>136</ele>
        <time>2022-07-11T08:33:33Z</time>
      </trkpt>
      <trkpt lat="46.71032" lon="0.5273">
        <ele>130</ele>
        <time>2022-07-11T08:35:42Z</time>
      </trkpt>
      <trkpt lat="46.71118" lon="0.52733">
        <ele>124</ele>
        <time>2022-07-11T08:36:51Z</time>
      </trkpt>
      <trkpt lat="46.71191" lon="0.52828">
        <ele>115</ele>
        <time>2022-07-11T08:38:09Z</time>
      </trkpt>
      <trkpt lat="46.71222" lon="0.52772">
        <ele>114</ele>
        <time>2022-07-11T08:38:49Z</time>
      </trkpt>
      <trkpt lat="46.71426" lon="0.52687">
        <ele>95</ele>
        <time>2022-07-11T08:41:39Z</time>
      </trkpt>
      <trkpt lat="46.71602" lon="0.52657">
        <ele>79</ele>
        <time>2022-07-11T08:44:01Z</time>
      </trkpt>
      <trkpt lat="46.7186" lon="0.52718">
        <ele>78</ele>
        <time>2022-07-11T08:47:30Z</time>
      </trkpt>
      <trkpt lat="46.72029" lon="0.52748">
        <ele>74</ele>
        <time>2022-07-11T08:49:46Z</time>
      </trkpt>
      <trkpt lat="46.72199" lon="0.52469">
        <ele>93</ele>
        <time>2022-07-11T08:53:11Z</time>
      </trkpt>
      <trkpt lat="46.72289" lon="0.52454">
        <ele>95</ele>
        <time>2022-07-11T08:54:24Z</time>
      </trkpt>
      <trkpt lat="46.72334" lon="0.52591">
        <ele>87.3</ele>
        <time>2022-07-11T08:55:44Z</time>
      </trkpt>
      <trkpt lat="46.72466" lon="0.52584">
        <ele>85</ele>
        <time>2022-07-11T08:57:26Z</time>
      </trkpt>
      <trkpt lat="46.72545" lon="0.52469">
        <ele>88</ele>
        <time>2022-07-11T08:58:55Z</time>
      </trkpt>
      <trkpt lat="46.72524" lon="0.52415">
        <ele>89.4</ele>
        <time>2022-07-11T08:59:58Z</time>
      </trkpt>
      <trkpt lat="46.7248" lon="0.52337">
        <ele>98.6</ele>
      </trkpt>
      <trkpt lat="46.72479" lon="0.52234">
        <ele>105.7</ele>
      </trkpt>
      <trkpt lat="46.72496" lon="0.52112">
        <ele>121.9</ele>
      </trkpt>
      <trkpt lat="46.72449" lon="0.52035">
        <ele>129.3</ele>
      </trkpt>
      <trkpt lat="46.72417" lon="0.51898">
        <ele>131.3</ele>
      </trkpt>
      <trkpt lat="46.72284" lon="0.51872">
        <ele>134.8</ele>
      </trkpt>
      <trkpt lat="46.71921" lon="0.51788">
        <ele>138</ele>
        <time>2022-07-11T09:53:28Z</time>
      </trkpt>
      <trkpt lat="46.71567" lon="0.51752">
        <ele>137</ele>
        <time>2022-07-11T09:58:12Z</time>
      </trkpt>
      <trkpt lat="46.71087" lon="0.51749">
        <ele>138</ele>
        <time>2022-07-11T10:04:37Z</time>
      </trkpt>
      <trkpt lat="46.70364" lon="0.51283">
        <ele>132</ele>
        <time>2022-07-11T10:15:10Z</time>
      </trkpt>
      <trkpt lat="46.70042" lon="0.5111">
        <ele>126</ele>
        <time>2022-07-11T10:19:44Z</time>
      </trkpt>
      <trkpt lat="46.6955" lon="0.52193">
        <ele>110</ele>
        <time>2022-07-11T10:31:38Z</time>
      </trkpt>
      <trkpt lat="46.69201" lon="0.51817">
        <ele>131</ele>
        <time>2022-07-11T10:37:25Z</time>
      </trkpt>
      <trkpt lat="46.6881" lon="0.51428">
        <ele>130</ele>
        <time>2022-07-11T10:43:44Z</time>
      </trkpt>
      <trkpt lat="46.68686" lon="0.51435">
        <ele>130</ele>
        <time>2022-07-11T10:45:24Z</time>
      </trkpt>
      <trkpt lat="46.68641" lon="0.51366">
        <ele>133</ele>
        <time>2022-07-11T10:46:16Z</time>
      </trkpt>
      <trkpt lat="46.68572" lon="0.51348">
        <ele>133</ele>
        <time>2022-07-11T10:47:12Z</time>
      </trkpt>
      <trkpt lat="46.68478" lon="0.51189">
        <ele>133</ele>
        <time>2022-07-11T10:49:07Z</time>
      </trkpt>
      <trkpt lat="46.68421" lon="0.51211">
        <ele>133</ele>
        <time>2022-07-11T10:49:54Z</time>
      </trkpt>
      <trkpt lat="46.68391" lon="0.51554">
        <ele>124</ele>
        <time>2022-07-11T10:53:04Z</time>
      </trkpt>
      <trkpt lat="46.683" lon="0.51734">
        <ele>110</ele>
        <time>2022-07-11T10:55:07Z</time>
      </trkpt>
      <trkpt lat="46.68198" lon="0.52073">
        <ele>93</ele>
        <time>2022-07-11T10:58:31Z</time>
      </trkpt>
      <trkpt lat="46.67966" lon="0.52373">
        <ele>77</ele>
        <time>2022-07-11T11:02:39Z</time>
      </trkpt>
      <trkpt lat="46.67904" lon="0.52539">
        <ele>81</ele>
        <time>2022-07-11T11:04:23Z</time>
      </trkpt>
      <trkpt lat="46.67921" lon="0.52669">
        <ele>96</ele>
        <time>2022-07-11T11:05:35Z</time>
      </trkpt>
      <trkpt lat="46.678" lon="0.52911">
        <ele>111</ele>
        <time>2022-07-11T11:08:20Z</time>
      </trkpt>
      <trkpt lat="46.67594" lon="0.53499">
        <ele>124</ele>
        <time>2022-07-11T11:14:23Z</time>
      </trkpt>
      <trkpt lat="46.67728" lon="0.53806">
        <ele>113</ele>
        <time>2022-07-11T11:17:42Z</time>
      </trkpt>
      <trkpt lat="46.67758" lon="0.53928">
        <ele>110</ele>
        <time>2022-07-11T11:18:54Z</time>
      </trkpt>
      <trkpt lat="46.67879" lon="0.53928">
        <ele>106</ele>
        <time>2022-07-11T11:20:31Z</time>
      </trkpt>
      <trkpt lat="46.67933" lon="0.54375">
        <ele>123</ele>
        <time>2022-07-11T11:24:40Z</time>
      </trkpt>
    </trkseg>
  </trk>
</gpx>